メインページ
METAR-TAF:

METAR-TAF

空港 :

ハリファックス・ロバート・L・スタンフィールド国際空港

ハリファックス, ノバスコシア州, カナダ

緯度: 44-53N, 経度: 063-30W, 海抜: 145m

現時点の気象観測

当レポートは46分前の10:00(UTC)に作成
北東の風 8kt
気温 8°C
湿度 100%
気圧 1021 hPa
視程: 24.1km
高度500ftの雲はほとんどない
高度3500ftの千切れ雲あり
高度26000ftの千切れ雲あり

METAR: CYHZ 201000Z 04008KT 15SM FEW005 BKN035 BKN260 08/08 A3016 RMK SF1SC6CI1 SF TR SLP218

時間: 07:46 (10:46 UTC)

予報

当レポートは2時間8分前の08:38(UTC)に作成
予報は20日の 09時(UTC)から 21日の 06時(UTC)まで有効
北/北東の風 8kt
視程: 10km
高度3000ftの千切れ雲あり
20日の 09時(UTC)から 20日の 16時(UTC)まで一時的に
高度3000ftの雲は散在している
20日の 1600時(UTC)から
北/北東の風 8kt
視程: 10km
高度4000ftの千切れ雲あり
21日の 0400時(UTC)から
東/北東の風 5kt
視程: 10km
高度4000ftの雲は散在している

TAF: CYHZ 200838Z 2009/2106 02008KT P6SM BKN030 TEMPO 2009/2016 SCT030 FM201600 02008KT P6SM BKN040 FM210400 06005KT P6SM SCT040 RMK NXT FCST BY 201200Z

4,000以上の空港の気象観測と天気予報(METAR報とTAF報)

利用可能な観測所は地図上に黄色い丸と赤い丸で示す。

丸の上にカーソルを重ねると観測所名を参照できる。

次にクリックすると気象観測と天気予報を参照できる。

マップの切り替え:黒色「×」印の緑ボタンをクリックして拡大、「-」印の緑ボタンをクリックして縮小、緑色の三角印をクリックして隣りの地図に切り替え


METAR-TAF: